Time;durP1;ratioP1;P1;durP2;ratioP2;P2;SDS_P1;SDS_P2;PMS_P1;PMS_P2;Temp;Humidity;BMP_temperature;BMP_pressure;BME280_temperature;BME280_humidity;BME280_pressure;Samples;Min_cycle;Max_cycle;Signal;HPM_P1;HPM_P2
2023/03/28 00:01:05;;;;;;;1.10;1.00;;;6.00;95.40;;;5.87;59.22;93937.66;5012967;28;20499;-61
2023/03/28 00:03:34;;;;;;;1.10;1.00;;;6.00;95.90;;;5.83;59.08;93931.09;5014298;28;21079;-61
2023/03/28 00:06:01;;;;;;;1.13;1.03;;;6.00;95.70;;;5.78;59.06;93928.03;5015092;28;20546;-61
2023/03/28 00:08:29;;;;;;;3.37;0.97;;;5.90;95.40;;;5.70;58.33;93937.38;5015332;28;20460;-61
2023/03/28 00:11:17;;;;;;;1.00;0.90;;;5.90;94.90;;;5.62;58.63;93945.03;5012690;28;20492;-61
2023/03/28 00:13:45;;;;;;;1.00;1.00;;;5.80;94.90;;;5.52;58.67;93942.41;5012066;28;20456;-61
2023/03/28 00:16:13;;;;;;;1.00;0.80;;;5.70;95.10;;;5.47;58.61;93972.41;5011046;28;20560;-61
2023/03/28 00:18:41;;;;;;;0.87;0.83;;;5.60;95.00;;;5.36;58.91;93974.19;5014196;28;20847;-61
2023/03/28 00:21:22;;;;;;;1.00;0.90;;;5.50;95.10;;;5.29;58.88;93993.09;5013733;28;20465;-59
2023/03/28 00:23:52;;;;;;;1.70;1.20;;;5.40;95.00;;;5.20;58.91;94003.34;5011880;28;20461;-59
2023/03/28 00:26:21;;;;;;;1.10;1.00;;;5.40;95.20;;;5.15;59.33;94012.50;5016217;28;20482;-59
2023/03/28 00:28:48;;;;;;;0.90;0.90;;;5.30;95.30;;;5.13;59.06;94011.81;5013758;28;20461;-60
2023/03/28 00:31:16;;;;;;;1.10;1.00;;;5.30;95.30;;;5.08;59.10;94004.38;5013048;28;20527;-60
2023/03/28 00:33:46;;;;;;;1.23;1.13;;;5.20;95.50;;;5.06;59.16;94013.25;5014791;28;20472;-57
2023/03/28 00:36:17;;;;;;;1.17;1.07;;;5.20;95.50;;;5.04;59.38;94021.19;5013530;28;20480;-61
2023/03/28 00:38:44;;;;;;;1.47;1.37;;;5.20;95.50;;;5.03;59.42;94023.00;5018633;28;20445;-62
2023/03/28 00:41:14;;;;;;;1.80;1.70;;;5.20;95.50;;;5.00;59.11;94033.66;5010670;28;21078;-58
2023/03/28 00:43:44;;;;;;;1.83;1.73;;;5.20;95.40;;;4.93;58.67;94036.91;5009947;28;20525;-63
2023/03/28 00:46:15;;;;;;;1.60;1.50;;;5.10;94.90;;;4.83;58.94;94029.84;5015493;28;20480;-58
2023/03/28 00:48:50;;;;;;;2.20;2.10;;;5.00;95.20;;;4.74;59.37;94030.59;5012416;28;20584;-59
2023/03/28 00:51:20;;;;;;;2.70;2.10;;;5.00;95.40;;;4.67;59.53;94022.44;5016356;28;20562;-62
2023/03/28 00:53:47;;;;;;;1.80;1.70;;;4.90;95.40;;;4.63;59.18;94025.41;5012237;28;20452;-63
2023/03/28 00:56:16;;;;;;;1.80;1.70;;;4.80;95.30;;;4.60;59.17;94033.47;5011483;28;20473;-62
2023/03/28 00:58:46;;;;;;;1.83;1.73;;;4.80;95.30;;;4.57;59.23;94025.91;5013532;28;20945;-61
2023/03/28 01:01:15;;;;;;;2.23;2.13;;;4.70;95.30;;;4.53;59.28;94046.19;5013827;28;20485;-57
2023/03/28 01:03:45;;;;;;;1.90;1.80;;;4.70;95.30;;;4.50;59.67;94059.44;5012457;28;20493;-61
2023/03/28 01:06:13;;;;;;;1.77;1.67;;;4.70;95.50;;;4.47;59.51;94052.69;5011467;28;20472;-61
2023/03/28 01:08:42;;;;;;;2.23;2.13;;;4.70;95.50;;;4.49;59.41;94060.38;5016489;28;20955;-59
2023/03/28 01:11:10;;;;;;;2.20;2.10;;;4.70;95.60;;;4.49;59.61;94062.97;5012816;28;20473;-61
2023/03/28 01:13:41;;;;;;;2.23;2.13;;;4.70;95.30;;;4.47;59.34;94055.28;5015700;28;20461;-61
2023/03/28 01:16:11;;;;;;;1.80;1.70;;;4.60;95.30;;;4.44;58.95;94067.75;5015269;28;20537;-61
2023/03/28 01:18:40;;;;;;;1.90;1.80;;;4.60;95.10;;;4.40;58.93;94081.94;5011132;28;20507;-62
2023/03/28 01:21:41;;;;;;;2.17;2.07;;;4.60;95.20;;;4.35;58.89;94089.31;5011777;28;20523;-59
2023/03/28 01:24:41;;;;;;;1.97;1.67;;;4.50;95.20;;;4.34;59.45;94098.06;5010074;28;20620;-58
2023/03/28 01:27:09;;;;;;;2.00;1.90;;;4.50;95.30;;;4.34;58.92;94098.06;4972052;28;20445;-59
2023/03/28 01:30:30;;;;;;;2.13;2.03;;;4.50;95.20;;;4.29;58.53;94101.00;5016823;28;20449;-62
2023/03/28 01:33:27;;;;;;;1.90;1.80;;;4.50;94.90;;;4.25;58.82;94097.84;5015571;28;20839;-60
2023/03/28 01:37:11;;;;;;;1.97;1.73;;;4.40;95.10;;;4.20;58.56;94097.38;5018242;28;20547;-61
2023/03/28 01:39:51;;;;;;;1.90;1.80;;;4.40;94.90;;;4.18;58.62;94093.22;4985219;28;20460;-58
2023/03/28 01:42:24;;;;;;;2.00;1.90;;;4.40;94.70;;;4.13;59.00;94104.81;5014175;28;20933;-57
2023/03/28 01:44:58;;;;;;;2.70;2.50;;;4.30;94.80;;;4.13;59.04;94096.19;5017476;28;20452;-57
2023/03/28 01:47:27;;;;;;;2.27;2.17;;;4.30;95.00;;;4.10;58.82;94102.47;5014408;28;20548;-58
2023/03/28 01:50:01;;;;;;;2.43;2.33;;;4.30;95.00;;;4.08;59.61;94122.56;5012342;28;20850;-58
2023/03/28 01:52:33;;;;;;;2.60;2.40;;;4.30;95.00;;;4.04;59.00;94115.13;5012235;28;20449;-59
2023/03/28 01:55:06;;;;;;;1.70;1.60;;;4.20;94.80;;;4.03;59.32;94129.91;5012132;28;20449;-61
2023/03/28 01:57:37;;;;;;;2.10;2.00;;;4.20;95.00;;;4.02;59.05;94127.44;5011704;28;20460;-59
2023/03/28 02:00:10;;;;;;;2.73;2.53;;;4.20;94.80;;;4.02;58.76;94119.63;5011239;28;20565;-62
2023/03/28 02:02:39;;;;;;;2.00;1.90;;;4.20;95.00;;;4.01;58.78;94125.78;5008928;28;20543;-63
2023/03/28 02:05:09;;;;;;;3.37;3.17;;;4.20;94.80;;;3.99;58.56;94119.88;5011922;28;20480;-61
2023/03/28 02:07:36;;;;;;;2.90;2.70;;;4.20;94.70;;;3.98;59.20;94126.81;5009878;28;20465;-60
2023/03/28 02:10:06;;;;;;;2.10;2.00;;;4.20;94.70;;;3.95;58.33;94130.50;5013847;28;20484;-62
2023/03/28 02:12:45;;;;;;;2.40;2.20;;;4.10;94.60;;;3.93;58.84;94140.22;5011980;28;20456;-60
2023/03/28 02:15:15;;;;;;;9.33;2.37;;;4.10;94.60;;;3.92;58.88;94135.94;5009457;28;20476;-62
2023/03/28 02:17:46;;;;;;;11.73;2.20;;;4.10;94.60;;;3.87;58.35;94122.47;5010718;28;20484;-58
2023/03/28 02:20:18;;;;;;;2.80;2.20;;;4.10;94.50;;;3.82;59.20;94134.16;5010010;28;20536;-61
2023/03/28 02:22:47;;;;;;;2.83;2.13;;;4.00;94.60;;;3.79;58.70;94150.81;5009652;28;20559;-62
2023/03/28 02:25:16;;;;;;;2.27;2.17;;;4.00;94.80;;;3.76;58.85;94143.25;5015526;28;20485;-62
2023/03/28 02:27:44;;;;;;;2.53;2.33;;;4.00;95.00;;;3.75;59.51;94157.22;5009672;28;20463;-61
2023/03/28 02:30:12;;;;;;;2.37;2.27;;;4.00;95.00;;;3.74;58.77;94150.34;5012981;28;21005;-62
2023/03/28 02:32:42;;;;;;;2.33;2.23;;;4.00;95.00;;;3.76;59.35;94146.72;5012345;28;20569;-59
2023/03/28 02:35:10;;;;;;;11.40;2.23;;;3.90;95.00;;;3.78;59.63;94144.00;5011827;28;20508;-59
2023/03/28 02:37:45;;;;;;;3.57;2.30;;;4.00;95.30;;;3.81;58.97;94150.72;5012410;28;20475;-59
2023/03/28 02:40:33;;;;;;;3.77;2.60;;;4.00;95.00;;;3.82;58.85;94150.59;5012791;28;21055;-62
2023/03/28 02:43:21;;;;;;;2.20;2.10;;;4.00;95.00;;;3.86;58.91;94146.81;5006293;28;20501;-57
2023/03/28 02:46:16;;;;;;;2.37;2.20;;;4.00;95.10;;;3.89;58.80;94158.78;4993921;28;20478;-61
2023/03/28 02:49:10;;;;;;;2.77;2.20;;;4.10;95.00;;;3.89;58.39;94146.59;4996734;28;20462;-63
2023/03/28 02:51:40;;;;;;;2.27;2.17;;;4.10;94.70;;;3.90;58.67;94155.22;4992863;28;20501;-57
2023/03/28 02:54:23;;;;;;;1.87;1.77;;;4.10;94.70;;;3.88;58.91;94155.31;4993183;28;20449;-60
2023/03/28 02:57:00;;;;;;;1.83;1.73;;;4.10;94.90;;;3.90;58.75;94170.81;4994142;28;20486;-61
2023/03/28 02:59:31;;;;;;;1.60;1.50;;;4.10;94.90;;;3.91;58.83;94157.69;4992807;28;21065;-61
2023/03/28 03:01:59;;;;;;;2.20;2.00;;;4.10;94.70;;;3.91;58.53;94165.50;4995866;28;20477;-57
2023/03/28 03:04:26;;;;;;;1.70;1.60;;;4.10;94.70;;;3.93;58.75;94163.63;4989840;28;20533;-58
2023/03/28 03:06:54;;;;;;;1.67;1.57;;;4.10;94.60;;;3.93;58.02;94184.44;4994799;28;20485;-59
2023/03/28 03:09:21;;;;;;;1.83;1.60;;;4.10;94.40;;;3.94;58.07;94183.47;4997494;28;20462;-59
2023/03/28 03:11:49;;;;;;;1.53;1.43;;;4.10;94.30;;;3.91;57.64;94181.09;4998923;28;20500;-62
2023/03/28 03:14:17;;;;;;;1.50;1.40;;;4.10;93.90;;;3.88;57.89;94177.91;4996295;28;20470;-60
2023/03/28 03:16:45;;;;;;;1.90;1.80;;;4.10;93.90;;;3.86;58.15;94183.25;4993852;28;20478;-61
2023/03/28 03:19:12;;;;;;;1.50;1.40;;;4.10;93.90;;;3.87;58.03;94200.50;4995392;28;20458;-61
2023/03/28 03:21:40;;;;;;;2.00;1.87;;;4.10;94.00;;;3.86;57.37;94195.44;4998692;28;20474;-62
2023/03/28 03:24:08;;;;;;;1.50;1.40;;;4.10;93.80;;;3.87;57.99;94203.13;4996241;28;20668;-58
2023/03/28 03:26:36;;;;;;;1.90;1.80;;;4.00;93.80;;;3.83;56.24;94204.28;4999514;28;20829;-58
2023/03/28 03:29:03;;;;;;;2.10;2.00;;;4.00;92.90;;;3.79;57.05;94202.84;4998058;28;20549;-58
2023/03/28 03:31:32;;;;;;;1.40;1.30;;;4.00;92.80;;;3.77;55.60;94204.75;4997360;28;20990;-61
2023/03/28 03:34:00;;;;;;;1.80;1.70;;;4.00;92.30;;;3.72;56.82;94193.88;4996643;28;21042;-62
2023/03/28 03:36:29;;;;;;;6.47;5.23;;;3.90;92.30;;;3.67;56.04;94194.22;5001226;28;20548;-62
2023/03/28 03:38:56;;;;;;;3.13;3.03;;;3.90;92.60;;;3.65;56.80;94210.84;4993416;28;20509;-62
2023/03/28 03:41:23;;;;;;;3.00;2.27;;;3.80;92.50;;;3.64;56.90;94206.59;4997281;28;20481;-58
2023/03/28 03:43:51;;;;;;;6.87;5.23;;;3.80;92.80;;;3.64;56.97;94204.00;5011308;28;20501;-62
2023/03/28 03:46:18;;;;;;;4.63;4.33;;;3.80;92.80;;;3.61;56.32;94199.88;5010387;28;20477;-62
2023/03/28 03:48:47;;;;;;;3.03;2.80;;;3.80;92.60;;;3.63;57.01;94213.56;5016606;28;20511;-62
2023/03/28 03:51:14;;;;;;;3.67;3.47;;;3.80;92.70;;;3.58;55.53;94203.50;5014912;28;20469;-61
2023/03/28 03:53:42;;;;;;;2.83;2.63;;;3.80;92.10;;;3.57;56.44;94209.66;5014197;28;20938;-57
2023/03/28 03:56:10;;;;;;;1.57;1.47;;;3.80;92.30;;;3.55;56.47;94216.75;5016175;28;20477;-63
2023/03/28 03:58:37;;;;;;;2.27;2.10;;;3.80;92.90;;;3.56;57.06;94220.16;5018740;28;20947;-59
2023/03/28 04:01:05;;;;;;;1.43;1.33;;;3.80;92.80;;;3.56;57.46;94202.81;5017404;28;20481;-63
2023/03/28 04:03:33;;;;;;;3.53;2.17;;;3.80;93.30;;;3.56;57.45;94230.56;5013161;28;20496;-59
2023/03/28 04:06:04;;;;;;;4.30;2.53;;;3.70;93.40;;;3.57;57.51;94235.66;5015134;28;20509;-63
2023/03/28 04:08:31;;;;;;;1.77;1.67;;;3.80;92.90;;;3.54;57.12;94242.84;5018284;28;20539;-63
2023/03/28 04:10:58;;;;;;;2.10;2.00;;;3.80;92.90;;;3.56;63.16;94246.16;5014919;28;20488;-57
2023/03/28 04:13:26;;;;;;;2.33;2.13;;;3.80;98.40;;;3.75;63.96;94254.28;5018050;28;20989;-58
2023/03/28 04:15:53;;;;;;;3.63;1.67;;;3.90;99.30;;;3.97;59.74;94257.03;5014098;28;20846;-57
2023/03/28 04:18:20;;;;;;;3.30;1.80;;;4.00;96.60;;;4.09;59.15;94251.75;5015284;28;20454;-57
2023/03/28 04:20:52;;;;;;;1.70;1.60;;;4.20;96.10;;;4.22;59.06;94256.03;5014853;28;20489;-60
2023/03/28 04:23:24;;;;;;;1.73;1.63;;;4.30;96.00;;;4.29;58.46;94255.44;5015684;28;20485;-56
2023/03/28 04:25:54;;;;;;;1.60;1.50;;;4.40;95.20;;;4.33;56.95;94263.03;5013867;28;20604;-59
2023/03/28 04:28:24;;;;;;;1.40;1.30;;;4.50;93.80;;;4.31;56.94;94276.97;5017128;28;20473;-58
2023/03/28 04:30:56;;;;;;;1.80;1.70;;;4.50;93.40;;;4.25;56.43;94277.44;5013297;28;20560;-65
2023/03/28 04:33:24;;;;;;;2.00;1.90;;;4.40;93.00;;;4.21;56.06;94280.38;5019895;28;21281;-57
2023/03/28 04:35:55;;;;;;;1.73;1.63;;;4.40;92.50;;;4.17;54.75;94284.16;5013740;28;20477;-62
2023/03/28 04:38:26;;;;;;;5.50;1.80;;;4.40;91.80;;;4.09;56.25;94282.97;5011279;28;21022;-56
2023/03/28 04:40:56;;;;;;;6.13;2.00;;;4.30;92.50;;;4.06;55.91;94287.56;5012197;28;20523;-57
2023/03/28 04:43:25;;;;;;;2.50;2.30;;;4.30;92.00;;;4.01;54.78;94300.09;5009882;28;20578;-57
2023/03/28 04:45:53;;;;;;;3.27;3.07;;;4.20;91.50;;;3.97;55.97;94301.25;5013933;28;20489;-70
2023/03/28 04:48:20;;;;;;;2.07;1.97;;;4.20;92.20;;;3.97;55.03;94303.84;5010368;28;20450;-62
2023/03/28 04:50:48;;;;;;;3.73;3.50;;;4.10;91.60;;;3.88;53.76;94314.00;5016812;28;20469;-60
2023/03/28 04:53:16;;;;;;;4.37;3.97;;;4.10;89.70;;;3.84;54.10;94320.41;5011960;28;20456;-64
2023/03/28 04:55:48;;;;;;;3.57;3.37;;;4.10;90.50;;;3.81;53.92;94314.56;5015707;28;20548;-63
2023/03/28 04:58:16;;;;;;;5.50;3.73;;;4.00;90.10;;;3.76;54.02;94330.50;5014328;28;20560;-61
2023/03/28 05:00:44;;;;;;;3.57;3.37;;;4.00;90.10;;;3.71;55.01;94332.63;5011648;28;20477;-57
2023/03/28 05:03:13;;;;;;;4.43;4.03;;;3.90;90.50;;;3.64;54.96;94334.00;5013790;28;20496;-61
2023/03/28 05:05:41;;;;;;;4.00;3.80;;;3.90;90.50;;;3.57;54.14;94321.44;5016314;28;20477;-57
2023/03/28 05:08:08;;;;;;;3.90;3.60;;;3.80;90.50;;;3.53;54.68;94326.97;5016255;28;20678;-58
2023/03/28 05:10:35;;;;;;;4.70;4.27;;;3.80;90.50;;;3.50;54.37;94330.66;5020965;28;20942;-58
2023/03/28 05:13:04;;;;;;;3.30;3.20;;;3.70;90.10;;;3.47;54.77;94328.28;5020202;28;20452;-61
2023/03/28 05:15:31;;;;;;;3.87;3.40;;;3.70;90.00;;;3.46;53.91;94326.59;5014708;28;20476;-57
2023/03/28 05:17:59;;;;;;;3.87;3.63;;;3.70;90.00;;;3.45;54.83;94340.53;5014846;28;20505;-58
2023/03/28 05:20:26;;;;;;;3.70;3.40;;;3.60;90.10;;;3.46;54.41;94336.19;5015154;28;20520;-58
2023/03/28 05:22:54;;;;;;;3.47;3.20;;;3.70;90.20;;;3.45;53.88;94337.94;5015894;28;20518;-58
2023/03/28 05:25:21;;;;;;;3.90;3.50;;;3.70;90.00;;;3.44;53.47;94338.91;5014680;28;20470;-57
2023/03/28 05:27:49;;;;;;;3.80;3.50;;;3.70;89.30;;;3.45;53.80;94339.72;5018345;28;20446;-62
2023/03/28 05:30:18;;;;;;;3.73;3.53;;;3.70;89.00;;;3.44;52.82;94338.03;5015122;28;20461;-58
2023/03/28 05:32:45;;;;;;;3.17;3.07;;;3.60;88.40;;;3.43;53.46;94337.22;5017746;28;20453;-63
2023/03/28 05:35:14;;;;;;;7.20;4.00;;;3.60;88.90;;;3.42;53.95;94351.16;5010782;28;20557;-57
2023/03/28 05:37:41;;;;;;;3.57;3.30;;;3.60;88.40;;;3.41;53.39;94354.72;5014495;28;20458;-58
2023/03/28 05:40:10;;;;;;;4.23;3.83;;;3.60;88.40;;;3.41;53.47;94352.09;5011302;28;20520;-58
2023/03/28 05:42:37;;;;;;;3.20;3.00;;;3.60;88.40;;;3.43;53.81;94363.22;5018028;28;20472;-62
2023/03/28 05:45:06;;;;;;;4.53;3.73;;;3.60;89.30;;;3.47;54.52;94353.41;5014114;28;20846;-56
2023/03/28 05:47:35;;;;;;;3.40;3.20;;;3.60;89.60;;;3.51;54.05;94363.50;5016370;28;20448;-62
2023/03/28 05:50:02;;;;;;;3.90;3.63;;;3.70;89.40;;;3.52;52.89;94362.56;5015659;28;20453;-58
2023/03/28 05:52:29;;;;;;;3.60;3.27;;;3.70;87.90;;;3.52;52.92;94364.34;5016274;28;20453;-62
2023/03/28 05:54:57;;;;;;;5.27;4.17;;;3.70;87.30;;;3.51;53.79;94376.50;5014425;28;20461;-57
2023/03/28 05:57:25;;;;;;;3.70;3.40;;;3.70;87.80;;;3.53;53.13;94377.22;5017908;28;20452;-62
2023/03/28 05:59:52;;;;;;;3.50;3.30;;;3.70;87.30;;;3.54;53.17;94381.47;5012187;28;20480;-62
2023/03/28 06:02:21;;;;;;;4.90;3.60;;;3.70;87.30;;;3.56;53.30;94378.75;5011787;28;20557;-61
2023/03/28 06:04:52;;;;;;;7.07;3.33;;;3.70;87.80;;;3.57;53.65;94386.47;5010915;28;20516;-58
2023/03/28 06:07:20;;;;;;;3.70;3.50;;;3.80;88.30;;;3.62;52.56;94377.50;5013047;28;20445;-59
2023/03/28 06:09:47;;;;;;;4.10;3.60;;;3.80;87.50;;;3.63;53.29;94393.00;5014980;28;20457;-56
2023/03/28 06:12:14;;;;;;;3.33;3.10;;;3.80;87.10;;;3.63;52.16;94394.78;5012665;28;20461;-62
2023/03/28 06:14:42;;;;;;;3.70;3.37;;;3.80;85.40;;;3.62;52.60;94399.13;5013021;28;20908;-58
2023/03/28 06:17:09;;;;;;;11.17;5.90;;;3.80;85.10;;;3.61;51.45;94410.50;5014884;28;20456;-58
2023/03/28 06:19:37;;;;;;;3.57;3.37;;;3.80;84.20;;;3.61;52.19;94418.28;5014073;28;20512;-59
2023/03/28 06:22:06;;;;;;;7.63;4.07;;;3.80;85.70;;;3.64;51.76;94417.22;5014849;28;21172;-56
2023/03/28 06:24:33;;;;;;;4.33;4.03;;;3.80;85.00;;;3.62;51.61;94424.31;5014332;28;20492;-62
2023/03/28 06:27:00;;;;;;;4.20;3.90;;;3.80;83.10;;;3.61;51.38;94420.88;5012063;28;20480;-57
2023/03/28 06:29:28;;;;;;;3.27;3.03;;;3.80;84.10;;;3.62;51.26;94424.31;5018542;28;20471;-57
2023/03/28 06:31:56;;;;;;;3.40;3.20;;;3.80;84.10;;;3.61;51.37;94425.25;5006645;28;20505;-58
2023/03/28 06:34:23;;;;;;;3.63;3.33;;;3.80;84.30;;;3.59;51.38;94425.34;5015038;28;20452;-56
2023/03/28 06:36:51;;;;;;;3.40;3.20;;;3.80;83.80;;;3.61;51.35;94427.84;5009831;28;20478;-58
2023/03/28 06:39:19;;;;;;;3.90;3.60;;;3.80;84.20;;;3.58;52.19;94431.50;5018711;28;20453;-63
2023/03/28 06:41:47;;;;;;;6.27;3.70;;;3.80;84.90;;;3.63;52.15;94426.81;5012497;28;21031;-58
2023/03/28 06:44:14;;;;;;;8.00;3.77;;;3.80;84.60;;;3.67;51.06;94424.81;5013641;28;20492;-61
2023/03/28 06:46:41;;;;;;;9.43;3.13;;;3.80;83.60;;;3.68;51.84;94424.69;5014104;28;20469;-58
2023/03/28 06:49:09;;;;;;;3.27;3.07;;;3.90;83.60;;;3.68;51.38;94418.69;5015070;28;20555;-59
2023/03/28 06:51:36;;;;;;;3.53;3.27;;;3.90;82.90;;;3.67;51.25;94417.00;5012425;28;20469;-59
2023/03/28 06:54:03;;;;;;;5.50;3.67;;;3.90;83.10;;;3.64;50.98;94427.63;5015917;28;20444;-61
2023/03/28 06:56:33;;;;;;;4.03;3.47;;;3.80;82.50;;;3.62;50.81;94417.34;5010958;28;20477;-63
2023/03/28 06:59:00;;;;;;;3.20;3.10;;;3.80;82.30;;;3.62;51.38;94419.13;5010508;28;20481;-58
2023/03/28 07:01:27;;;;;;;3.10;2.90;;;3.80;82.90;;;3.64;51.20;94432.81;5010747;28;20843;-63
2023/03/28 07:03:58;;;;;;;3.13;2.93;;;3.80;82.90;;;3.64;50.68;94436.28;5014877;28;20500;-62
2023/03/28 07:06:25;;;;;;;3.40;3.20;;;3.80;81.80;;;3.63;50.19;94437.22;5008262;28;20993;-58
2023/03/28 07:08:53;;;;;;;8.10;3.37;;;3.80;81.30;;;3.64;51.28;94430.22;5012169;28;20460;-58
2023/03/28 07:11:20;;;;;;;4.40;4.10;;;3.80;81.90;;;3.63;50.71;94446.78;5011903;28;20500;-63
2023/03/28 07:13:49;;;;;;;5.43;4.30;;;3.80;81.50;;;3.65;51.58;94456.13;5016108;28;20458;-58
2023/03/28 07:16:16;;;;;;;4.87;4.37;;;3.90;82.70;;;3.65;51.46;94465.69;5013268;28;20480;-57
2023/03/28 07:18:44;;;;;;;3.50;3.20;;;3.90;82.80;;;3.66;50.90;94467.38;5014236;28;20502;-62
2023/03/28 07:21:12;;;;;;;7.20;5.13;;;3.90;82.90;;;3.64;51.55;94477.03;5014706;28;20470;-63
2023/03/28 07:23:40;;;;;;;4.13;3.80;;;3.80;82.20;;;3.63;51.64;94493.59;5017039;28;20468;-58
2023/03/28 07:26:08;;;;;;;3.60;3.30;;;3.80;82.50;;;3.59;50.79;94488.59;5012198;28;20465;-62
2023/03/28 07:28:35;;;;;;;3.23;2.93;;;3.80;82.30;;;3.53;51.28;94477.78;5019461;28;20976;-58
2023/03/28 07:31:04;;;;;;;3.37;3.10;;;3.80;82.20;;;3.58;51.47;94488.72;5012297;28;20527;-62
2023/03/28 07:33:32;;;;;;;5.27;3.63;;;3.70;82.10;;;3.58;50.85;94492.13;5010959;28;20469;-61
2023/03/28 07:36:00;;;;;;;4.47;3.70;;;3.80;81.50;;;3.61;50.94;94495.44;5017272;28;20603;-62
2023/03/28 07:38:27;;;;;;;3.10;2.90;;;3.80;81.50;;;3.64;50.80;94503.03;5013678;28;20549;-57
2023/03/28 07:40:55;;;;;;;7.00;3.57;;;3.80;81.80;;;3.63;50.48;94496.19;5014469;28;20503;-62
2023/03/28 07:43:22;;;;;;;3.00;2.83;;;3.80;80.80;;;3.64;50.06;94497.84;5013078;28;20468;-57
2023/03/28 07:45:49;;;;;;;2.97;2.77;;;3.80;80.60;;;3.66;50.23;94501.19;5012683;28;20492;-58
2023/03/28 07:48:18;;;;;;;5.03;3.80;;;3.80;80.20;;;3.66;50.54;94493.38;5013786;28;20454;-61
2023/03/28 07:50:45;;;;;;;3.20;3.00;;;3.90;80.10;;;3.64;50.06;94496.09;5015511;28;20472;-57
2023/03/28 07:53:13;;;;;;;2.73;2.40;;;3.80;79.70;;;3.64;50.80;94505.63;5014139;28;20445;-57
2023/03/28 07:55:42;;;;;;;2.93;2.73;;;3.80;79.60;;;3.62;50.35;94507.53;5020381;28;20474;-62
2023/03/28 07:58:10;;;;;;;3.63;3.17;;;3.80;80.30;;;3.62;51.01;94517.94;5021465;28;20919;-63
2023/03/28 08:00:37;;;;;;;3.67;3.37;;;3.80;80.10;;;3.64;50.48;94532.50;5014523;28;20472;-58
2023/03/28 08:03:05;;;;;;;9.03;3.40;;;3.90;79.70;;;3.65;50.26;94530.72;5011805;28;20454;-57
2023/03/28 08:05:36;;;;;;;3.67;3.33;;;3.80;79.60;;;3.66;49.89;94537.59;5020863;28;21084;-64
2023/03/28 08:08:04;;;;;;;3.33;3.10;;;3.80;79.20;;;3.64;50.53;94518.63;5013811;28;20445;-58
2023/03/28 08:10:31;;;;;;;12.67;4.57;;;3.80;78.90;;;3.66;50.66;94520.22;5019253;28;20476;-63
2023/03/28 08:12:58;;;;;;;3.30;3.10;;;3.90;79.10;;;3.68;49.72;94530.50;5018422;28;20465;-64
2023/03/28 08:15:26;;;;;;;3.90;3.60;;;3.90;79.10;;;3.71;50.71;94533.72;5018863;28;20999;-58
2023/03/28 08:17:53;;;;;;;3.03;2.83;;;3.90;79.40;;;3.76;50.41;94538.59;5017845;28;20446;-58
2023/03/28 08:20:21;;;;;;;6.20;3.90;;;4.00;80.20;;;3.82;50.34;94550.34;5018944;28;20476;-63
2023/03/28 08:22:49;;;;;;;3.70;3.40;;;4.00;80.20;;;3.90;50.53;94554.09;5017174;28;20484;-63
2023/03/28 08:25:17;;;;;;;3.50;3.20;;;4.10;81.70;;;3.99;49.80;94556.97;5013668;28;20524;-58
2023/03/28 08:27:44;;;;;;;5.00;3.60;;;4.10;79.50;;;4.07;50.73;94537.28;5011914;28;20488;-58
2023/03/28 08:30:13;;;;;;;3.50;3.30;;;4.20;80.00;;;4.14;50.55;94550.69;5012269;28;20482;-58
2023/03/28 08:32:40;;;;;;;3.07;2.97;;;4.30;80.00;;;4.19;49.57;94563.38;5011689;28;20453;-63
2023/03/28 08:35:09;;;;;;;3.50;3.17;;;4.40;79.00;;;4.26;49.67;94564.59;5016903;28;20480;-56
2023/03/28 08:37:36;;;;;;;2.63;2.53;;;4.40;78.80;;;4.37;50.01;94566.44;5016985;28;20457;-62
2023/03/28 08:40:12;;;;;;;4.30;3.07;;;4.50;79.70;;;4.45;50.16;94564.13;5016833;28;20477;-58
2023/03/28 08:43:00;;;;;;;3.20;3.00;;;4.60;79.70;;;4.58;49.22;94559.69;5019118;28;20467;-62
2023/03/28 08:45:48;;;;;;;3.40;3.00;;;4.70;78.00;;;4.69;48.98;94558.91;5015060;28;20579;-58
2023/03/28 08:48:24;;;;;;;3.13;2.73;;;4.80;77.90;;;4.74;48.92;94580.25;5014564;28;20502;-58
2023/03/28 08:50:53;;;;;;;8.63;2.90;;;4.90;77.20;;;4.80;48.97;94568.53;5019118;28;20505;-58
2023/03/28 08:53:26;;;;;;;2.30;2.20;;;5.00;77.50;;;4.80;48.75;94574.59;5014965;28;20446;-63
2023/03/28 08:55:56;;;;;;;8.17;2.47;;;5.00;77.20;;;4.79;49.22;94572.09;5013049;28;20825;-58
2023/03/28 08:58:23;;;;;;;2.80;2.60;;;5.00;77.60;;;4.88;49.04;94570.59;5013441;28;20481;-59
2023/03/28 09:00:51;;;;;;;3.40;3.20;;;5.00;77.50;;;4.91;48.75;94592.06;5013672;28;20568;-57
2023/03/28 09:03:20;;;;;;;3.23;2.93;;;5.00;76.90;;;4.97;48.59;94582.94;5014401;28;20452;-58
2023/03/28 09:05:49;;;;;;;2.67;2.43;;;5.10;76.50;;;5.05;48.93;94582.38;5014114;28;20580;-61
2023/03/28 09:08:41;;;;;;;3.10;2.87;;;5.20;77.00;;;5.16;48.69;94587.66;5018341;28;20537;-64
2023/03/28 09:11:21;;;;;;;3.87;3.40;;;5.30;77.20;;;5.25;48.63;94584.34;5016236;28;20993;-62
2023/03/28 09:13:56;;;;;;;2.77;2.63;;;5.40;76.40;;;5.32;48.18;94595.97;5016774;28;20484;-58
2023/03/28 09:16:35;;;;;;;7.03;2.37;;;5.40;75.40;;;5.33;46.74;94589.81;5016004;28;20709;-64
2023/03/28 09:19:26;;;;;;;3.00;2.80;;;5.50;73.40;;;5.30;47.88;94597.88;5013908;28;20456;-63
2023/03/28 09:22:02;;;;;;;3.17;2.87;;;5.40;74.70;;;5.29;48.28;94604.00;5014802;28;20480;-58
2023/03/28 09:24:42;;;;;;;3.40;3.10;;;5.40;75.40;;;5.24;48.51;94600.94;5014026;28;20634;-58
2023/03/28 09:27:18;;;;;;;3.50;3.20;;;5.40;75.40;;;5.20;48.85;94602.09;5018400;28;20503;-62
2023/03/28 09:29:46;;;;;;;4.27;3.87;;;5.40;76.40;;;5.15;48.56;94593.78;5019987;28;20456;-61
2023/03/28 09:32:19;;;;;;;7.53;2.93;;;5.30;75.60;;;5.06;49.15;94597.06;5011715;28;20450;-58
2023/03/28 09:34:49;;;;;;;4.87;2.97;;;5.20;76.20;;;5.02;49.55;94591.28;5014880;28;20532;-58
2023/03/28 09:37:27;;;;;;;2.80;2.60;;;5.20;77.20;;;5.00;48.96;94604.41;5013511;28;20482;-58
2023/03/28 09:39:55;;;;;;;3.30;3.10;;;5.20;76.20;;;5.05;48.44;94596.25;5014959;28;20445;-58
2023/03/28 09:42:34;;;;;;;3.20;3.00;;;5.20;75.20;;;5.17;49.02;94597.97;5015331;28;20460;-59
2023/03/28 09:45:07;;;;;;;3.33;3.13;;;5.30;76.50;;;5.37;49.01;94587.78;5011526;28;20484;-58
2023/03/28 09:47:35;;;;;;;3.63;3.33;;;5.40;77.20;;;5.46;48.55;94596.72;5019334;28;20491;-58
2023/03/28 09:50:02;;;;;;;3.27;3.07;;;5.50;75.70;;;5.52;48.40;94585.81;5020225;28;20466;-63
2023/03/28 09:52:30;;;;;;;6.73;4.00;;;5.60;76.50;;;5.59;48.37;94597.44;5013648;28;20456;-58
2023/03/28 09:54:59;;;;;;;7.50;3.80;;;5.70;75.50;;;5.68;48.02;94604.56;5010558;28;20457;-63
2023/03/28 09:57:28;;;;;;;3.23;3.03;;;5.80;74.70;;;5.74;47.42;94598.06;5018986;28;20543;-63
2023/03/28 09:59:58;;;;;;;3.07;2.87;;;5.90;73.80;;;5.85;47.10;94598.06;5012363;28;20480;-58
2023/03/28 10:02:27;;;;;;;3.10;2.83;;;5.90;72.70;;;5.93;46.34;94600.94;5014090;28;20448;-61
2023/03/28 10:04:55;;;;;;;3.07;2.87;;;6.00;71.20;;;5.99;45.49;94596.22;5014950;28;20547;-64
2023/03/28 10:07:32;;;;;;;4.07;2.83;;;6.10;69.60;;;6.07;44.57;94592.06;5016409;28;20448;-63
2023/03/28 10:10:08;;;;;;;5.17;3.07;;;6.20;67.90;;;6.14;44.96;94597.63;5014671;28;20456;-60
2023/03/28 10:12:38;;;;;;;4.13;3.23;;;6.20;68.50;;;6.24;45.87;94597.72;5013431;28;20460;-59
2023/03/28 10:15:13;;;;;;;3.37;3.07;;;6.30;68.90;;;6.33;45.65;94607.47;5016010;28;20475;-59
2023/03/28 10:17:41;;;;;;;2.50;2.30;;;6.40;69.00;;;6.37;43.52;94598.44;5012567;28;20452;-58
2023/03/28 10:20:15;;;;;;;2.50;2.20;;;6.50;66.30;;;6.38;44.43;94583.59;5012279;28;20515;-59
2023/03/28 10:22:42;;;;;;;2.30;2.20;;;6.50;66.90;;;6.33;44.31;94591.78;5008317;28;20999;-58
2023/03/28 10:25:16;;;;;;;2.83;2.63;;;6.50;66.90;;;6.32;44.03;94594.50;5011374;28;20505;-63
2023/03/28 10:27:45;;;;;;;3.37;3.07;;;6.50;66.40;;;6.33;43.89;94606.63;5013323;28;20505;-59
2023/03/28 10:30:21;;;;;;;2.80;2.60;;;6.50;65.70;;;6.37;44.66;94610.69;5019246;28;20477;-57
2023/03/28 10:33:09;;;;;;;2.87;2.70;;;6.50;66.70;;;6.45;44.19;94621.34;5016631;28;20498;-63
2023/03/28 10:35:40;;;;;;;5.93;3.20;;;6.50;66.50;;;6.56;45.24;94633.56;5017771;28;20478;-58
2023/03/28 10:38:14;;;;;;;2.70;2.60;;;6.60;67.90;;;6.71;44.77;94626.28;5016204;28;20510;-58
2023/03/28 10:40:41;;;;;;;2.97;2.83;;;6.80;67.60;;;6.80;43.41;94631.63;5014037;28;20562;-58
2023/03/28 10:43:15;;;;;;;6.87;2.50;;;6.80;65.50;;;6.80;44.30;94633.38;5014722;28;20477;-63
2023/03/28 10:45:43;;;;;;;3.90;3.60;;;6.90;65.70;;;6.79;44.25;94647.41;5016098;28;20568;-63
2023/03/28 10:48:14;;;;;;;2.53;2.33;;;6.90;66.90;;;6.88;44.85;94641.47;5011125;28;20470;-63